TTPP/POS METAR and TAF weather

Enter ICAO airport designator
Station Type Date Time Source
TTPP METAR 2020/01/18 15:00 UTC NOAA

TTPP 181500Z 10008KT 9999 FEW018 30/23 Q1016 NOSIG


Station Type Date Time Source
TTPP Decoded METAR 2020/01/18 15:00 UTC NOAA

Piarco International Airport, Trinidad, Trinidad and Tobago (TTPP) 10-37N 061-21W 15M
Jan 18, 2020 - 10:00 AM EST / 2020.01.18 1500 UTC
Wind: from the E (100 degrees) at 9 MPH (8 KT):0
Visibility: greater than 7 mile(s):0
Sky conditions: mostly clear
Temperature: 86 F (30 C)
Heat index: 93.4 F (34.1 C):1
Dew Point: 73 F (23 C)
Relative Humidity: 66%
Pressure (altimeter): 30.00 in. Hg (1016 hPa)
ob: TTPP 181500Z 10008KT 9999 FEW018 30/23 Q1016 NOSIG
cycle: 15

Station Type Date Time Source
TTPP TAF 2020/01/18 12:32 UTC NOAA

TAF TTPP 181000Z 1812/1912 11012KT 9999 SCT020
TEMPO 1812/1820 SHRA SCT016 PROB40
TEMPO 1903/1912 11015G25KT 5000 SHRA SCT014

Example: see airport list